Mandoudi — SV3198 — position and weather

sailwx.info

Track history (hours):
 
Tides and Currents Weather Stations Pressure Air Temp Water Temp Dewpoint Dewpoint Depression Visibility Wind Speed Wind Dir Waves Ship Positions

Mandoudi

Last reported at 2017-Feb-21 18:33 UTC. Time now 2017-Feb-21 19:05 UTC.
Position N 37°58' E 023°37'.

Length 60 m; draft 4.6 m.

Type: Ship (hazmat cat A). MMSI: 237470200.

Date/timePositionNaut miles runAvg speedWind from/ knotsBaromVisibWave heightAir tempDewpointWater temp
2017-Feb-21 18:33N 37°58' E 023°37'0 0.0
2017-Feb-21 17:33N 37°58' E 023°37'0 0.0
2017-Feb-21 16:33N 37°58' E 023°37'0 0.0
2017-Feb-21 15:33N 37°58' E 023°37'0 0.0
2017-Feb-21 14:33N 37°58' E 023°37'0 0.0
2017-Feb-21 13:33N 37°58' E 023°37'0 0.0
2017-Feb-21 12:33N 37°58' E 023°37'0 0.0
2017-Feb-21 11:33N 37°58' E 023°37'2 2.1
2017-Feb-21 10:33N 37°57' E 023°34'4 4.4
2017-Feb-21 09:33N 38°01' E 023°31'0 0.0
2017-Feb-21 08:33N 38°01' E 023°31'1 0.8
2017-Feb-21 07:33N 38°01' E 023°32'0 0.0
2017-Feb-21 06:33N 38°01' E 023°32'3 3.2
2017-Feb-21 05:33N 37°58' E 023°33'3 3.0
2017-Feb-21 04:33N 37°58' E 023°37'0 0.0
2017-Feb-21 03:33N 37°58' E 023°37'0 0.0
2017-Feb-21 02:33N 37°58' E 023°37'0 0.0
2017-Feb-21 01:33N 37°58' E 023°37'0 0.0
2017-Feb-21 00:33N 37°58' E 023°37'0 0.0
2017-Feb-20 23:33N 37°58' E 023°37'0 0.0
2017-Feb-20 22:33N 37°58' E 023°37'0 0.0
2017-Feb-20 21:33N 37°58' E 023°37'0 0.0
2017-Feb-20 20:33N 37°58' E 023°37'0 0.0
2017-Feb-20 19:33N 37°58' E 023°37'0 0.0
2017-Feb-20 18:33N 37°58' E 023°37'0 0.0
2017-Feb-20 17:33N 37°58' E 023°37'0 0.0
2017-Feb-20 16:33N 37°58' E 023°37'0 0.0
2017-Feb-20 15:33N 37°58' E 023°37'0 0.0
2017-Feb-20 14:33N 37°58' E 023°37'0 0.0
2017-Feb-20 13:33N 37°58' E 023°37'0 0.0
2017-Feb-20 12:33N 37°58' E 023°37'1 0.6
2017-Feb-20 11:33N 37°57' E 023°36'2 1.5
2017-Feb-20 10:33N 37°57' E 023°38'0 0.0
2017-Feb-20 09:33N 37°57' E 023°38'0 0.0
2017-Feb-20 08:33N 37°57' E 023°38'0 0.0
2017-Feb-20 07:33N 37°57' E 023°38'0 0.0
2017-Feb-20 06:33N 37°57' E 023°38'1 1.3
2017-Feb-20 05:33N 37°58' E 023°37'0 0.0
2017-Feb-20 04:33N 37°58' E 023°37'0 0.0
2017-Feb-20 03:33N 37°58' E 023°37'0 0.0
2017-Feb-20 02:33N 37°58' E 023°37'0 0.0
2017-Feb-20 01:33N 37°58' E 023°37'0 0.0
2017-Feb-20 00:33N 37°58' E 023°37'0 0.0
2017-Feb-19 23:33N 37°58' E 023°37'0 0.0
2017-Feb-19 22:33N 37°58' E 023°37'0 0.0
2017-Feb-19 21:33N 37°58' E 023°37'0 0.0
2017-Feb-19 20:33N 37°58' E 023°37'0 0.0
2017-Feb-19 19:33N 37°58' E 023°37'0 0.0
2017-Feb-19 18:33N 37°58' E 023°37'0 0.0
2017-Feb-19 17:33N 37°58' E 023°37'0 0.0
2017-Feb-19 16:33N 37°58' E 023°37'0 0.0
2017-Feb-19 15:33N 37°58' E 023°37'0 0.0
2017-Feb-19 14:33N 37°58' E 023°37'0 0.0
2017-Feb-19 13:33N 37°58' E 023°37'0 0.0
2017-Feb-19 12:33N 37°58' E 023°37'0 0.0
2017-Feb-19 11:33N 37°58' E 023°37'0 0.0
2017-Feb-19 10:33N 37°58' E 023°37'2 2.3
2017-Feb-19 09:33N 37°57' E 023°34'5 4.6
2017-Feb-19 08:33N 38°02' E 023°32'0 0.0
2017-Feb-19 07:33N 38°02' E 023°32'5 5.4
2017-Feb-19 06:33N 37°58' E 023°37'0 0.0
2017-Feb-19 05:33N 37°58' E 023°37'0 0.0
2017-Feb-19 04:33N 37°58' E 023°37'0 0.0
2017-Feb-19 03:33N 37°58' E 023°37'0 0.0
2017-Feb-19 02:33N 37°58' E 023°37'0 0.0
2017-Feb-19 01:33N 37°58' E 023°37'0 0.0
2017-Feb-19 00:33N 37°58' E 023°37'0 0.0
2017-Feb-18 23:33N 37°58' E 023°37'0 0.0
2017-Feb-18 22:33N 37°58' E 023°37'0 0.0
2017-Feb-18 21:32N 37°58' E 023°37'0 0.0
2017-Feb-18 20:33N 37°58' E 023°37'0 0.0
2017-Feb-18 19:33N 37°58' E 023°37'0 0.0
2017-Feb-18 18:33N 37°58' E 023°37'0 0.0
2017-Feb-18 17:33N 37°58' E 023°37'0 0.0
2017-Feb-18 16:33N 37°58' E 023°37'0 0.0
2017-Feb-18 15:33N 37°58' E 023°37'0 0.0
2017-Feb-18 14:33N 37°58' E 023°37'0 0.0
2017-Feb-18 13:33N 37°58' E 023°37'0 0.0
2017-Feb-18 12:33N 37°58' E 023°37'0 0.0
2017-Feb-18 11:33N 37°58' E 023°37'0 0.0
2017-Feb-18 10:33N 37°58' E 023°37'0 0.0
2017-Feb-18 09:33N 37°58' E 023°37'0 0.0
2017-Feb-18 08:33N 37°58' E 023°37'0 0.0
2017-Feb-18 07:33N 37°58' E 023°37'0 0.0
2017-Feb-18 06:33N 37°58' E 023°37'1 0.6
2017-Feb-18 05:33N 37°57' E 023°36'4 4.1
2017-Feb-18 04:33N 38°01' E 023°35'0 0.0
2017-Feb-18 03:33N 38°01' E 023°35'0 0.0
2017-Feb-18 02:33N 38°01' E 023°35'1 0.9
2017-Feb-18 01:33N 38°02' E 023°36'0 0.0
2017-Feb-18 00:33N 38°02' E 023°36'0 0.0
2017-Feb-17 23:33N 38°02' E 023°36'0 0.0
2017-Feb-17 22:33N 38°02' E 023°36'0 0.0
2017-Feb-17 21:33N 38°02' E 023°36'0 0.0
2017-Feb-17 20:33N 38°02' E 023°36'0 0.0
2017-Feb-17 19:34N 38°02' E 023°36'0 0.1
2017-Feb-17 18:33N 38°02' E 023°36'1 0.6
2017-Feb-17 17:33N 38°02' E 023°35'0 0.0
2017-Feb-17 16:34N 38°02' E 023°35'0 0.0
2017-Feb-17 15:33N 38°02' E 023°35'0 0.0
2017-Feb-17 14:33N 38°02' E 023°35'0 0.0
2017-Feb-17 13:33N 38°02' E 023°35'0 0.0
2017-Feb-17 12:33N 38°02' E 023°35'0 0.0
2017-Feb-17 11:33N 38°02' E 023°35'0 0.0
2017-Feb-17 10:34N 38°02' E 023°35'0 0.0
2017-Feb-17 09:33N 38°02' E 023°35'0 0.0
2017-Feb-17 08:33N 38°02' E 023°35'0 0.0
2017-Feb-17 07:33N 38°02' E 023°35'0 0.0
2017-Feb-17 06:34N 38°02' E 023°35'5 4.8
2017-Feb-17 05:33N 37°57' E 023°36'1 0.9
2017-Feb-17 04:33N 37°58' E 023°37'0 0.0
2017-Feb-17 03:33N 37°58' E 023°37'0 0.0
2017-Feb-17 02:33N 37°58' E 023°37'0 0.0
2017-Feb-17 01:33N 37°58' E 023°37'0 0.0
2017-Feb-17 00:33N 37°58' E 023°37'0 0.0
2017-Feb-16 23:33N 37°58' E 023°37'0 0.0
2017-Feb-16 22:33N 37°58' E 023°37'0 0.0
2017-Feb-16 21:33N 37°58' E 023°37'0 0.0
2017-Feb-16 20:33N 37°58' E 023°37'0 0.0
2017-Feb-16 19:33N 37°58' E 023°37'0 0.0
2017-Feb-16 18:33N 37°58' E 023°37'0 0.0
2017-Feb-16 17:33N 37°58' E 023°37'0 0.0
2017-Feb-16 16:33N 37°58' E 023°37'0 0.0
2017-Feb-16 15:33N 37°58' E 023°37'0 0.0
2017-Feb-16 14:33N 37°58' E 023°37'0 0.0
2017-Feb-16 13:33N 37°58' E 023°37'0 0.0
2017-Feb-16 12:33N 37°58' E 023°37'0 0.0
2017-Feb-16 11:33N 37°58' E 023°37'0 0.0
2017-Feb-16 10:33N 37°58' E 023°37'0 0.0
2017-Feb-16 09:33N 37°58' E 023°37'0 0.0
2017-Feb-16 08:33N 37°58' E 023°37'0 0.0
2017-Feb-16 07:33N 37°58' E 023°37'0 0.0
2017-Feb-16 06:33N 37°58' E 023°37'0 0.0
2017-Feb-16 05:33N 37°58' E 023°37'0 0.0
2017-Feb-16 04:33N 37°58' E 023°37'0 0.0
2017-Feb-16 03:33N 37°58' E 023°37'0 0.0
2017-Feb-16 02:33N 37°58' E 023°37'0 0.0
2017-Feb-16 01:33N 37°58' E 023°37'0 0.0
2017-Feb-16 00:33N 37°58' E 023°37'0 0.0
2017-Feb-15 23:33N 37°58' E 023°37'0 0.0
2017-Feb-15 22:33N 37°58' E 023°37'0 0.0
2017-Feb-15 21:33N 37°58' E 023°37'2 1.6
2017-Feb-15 20:33N 37°57' E 023°35'4 3.7
2017-Feb-15 19:33N 37°54' E 023°33'0 0.0
2017-Feb-15 18:33N 37°54' E 023°33'0 0.0
2017-Feb-15 17:33N 37°54' E 023°33'0 0.0
2017-Feb-15 16:33N 37°54' E 023°33'2 2.3
2017-Feb-15 15:33N 37°56' E 023°34'3 2.9
2017-Feb-15 14:33N 37°58' E 023°37'0 0.0
2017-Feb-15 13:33N 37°58' E 023°37'0 0.0
2017-Feb-15 12:33N 37°58' E 023°37'0 0.0
2017-Feb-15 11:33N 37°58' E 023°37'0 0.0
2017-Feb-15 10:33N 37°58' E 023°37'0 0.0
2017-Feb-15 09:33N 37°58' E 023°37'0 0.0
2017-Feb-15 08:33N 37°58' E 023°37'0 0.0
2017-Feb-15 07:33N 37°58' E 023°37'0 0.0
2017-Feb-15 06:33N 37°58' E 023°37'0 0.0
2017-Feb-15 05:33N 37°58' E 023°37'0 0.0
2017-Feb-15 04:33N 37°58' E 023°37'0 0.0
2017-Feb-15 03:33N 37°58' E 023°37'0 0.0
2017-Feb-15 02:33N 37°58' E 023°37'0 0.0
2017-Feb-15 01:33N 37°58' E 023°37'0 0.0
2017-Feb-15 00:33N 37°58' E 023°37'0 0.0
2017-Feb-14 23:33N 37°58' E 023°37'0 0.0
2017-Feb-14 22:33N 37°58' E 023°37'0 0.0
2017-Feb-14 21:33N 37°58' E 023°37'0 0.0
2017-Feb-14 20:33N 37°58' E 023°37'0 0.0
2017-Feb-14 19:33N 37°58' E 023°37'3 3.0
2017-Feb-14 18:33N 37°58' E 023°33'5 4.5
2017-Feb-14 17:33N 38°02' E 023°36'0 0.0
2017-Feb-14 16:33N 38°02' E 023°36'0 0.0
2017-Feb-14 15:33N 38°02' E 023°36'0 0.4
2017-Feb-14 14:33N 38°02' E 023°35'1 0.8
2017-Feb-14 13:33N 38°01' E 023°35'5 5.1
2017-Feb-14 12:33N 37°56' E 023°37'0 0.0
2017-Feb-14 11:33N 37°56' E 023°37'0 0.0
2017-Feb-14 10:33N 37°56' E 023°37'1 1.2
2017-Feb-14 09:33N 37°58' E 023°37'0 0.0
2017-Feb-14 08:33N 37°58' E 023°37'0 0.1
2017-Feb-14 06:30N 37°57' E 023°36'0 0.1
2017-Feb-14 02:05N 37°58' E 023°37'0 0.0
2017-Feb-14 00:33N 37°58' E 023°37'0 0.0
2017-Feb-13 23:33N 37°58' E 023°37'0 0.0
2017-Feb-13 22:33N 37°58' E 023°37'0 0.0
2017-Feb-13 21:33N 37°58' E 023°37'0 0.0
2017-Feb-13 20:33N 37°58' E 023°37'0 0.0
2017-Feb-13 19:33N 37°58' E 023°37'0 0.0
2017-Feb-13 18:33N 37°58' E 023°37'0 0.0
2017-Feb-13 17:33N 37°58' E 023°37'0 0.0
2017-Feb-13 16:33N 37°58' E 023°37'0 0.0
2017-Feb-13 15:33N 37°58' E 023°37'0 0.0
2017-Feb-13 14:33N 37°58' E 023°37'0 0.0
2017-Feb-13 13:33N 37°58' E 023°37'0 0.0
2017-Feb-13 06:05N 37°58' E 023°37'0 0.0
2017-Feb-13 04:32N 37°58' E 023°37'0 0.0
2017-Feb-13 00:26N 37°58' E 023°37'0 0.0
2017-Feb-12 23:18N 37°58' E 023°37'0 0.0
2017-Feb-12 22:30N 37°58' E 023°37'0 0.0
2017-Feb-12 21:15N 37°58' E 023°37'1 0.1
2017-Feb-12 11:33N 37°57' E 023°36'1 0.5
2017-Feb-12 10:33N 37°57' E 023°35'0 0.0
2017-Feb-12 09:33N 37°57' E 023°35'0 0.0
2017-Feb-12 08:33N 37°57' E 023°35'4 3.9
2017-Feb-12 07:33N 37°54' E 023°33'0 0.4
2017-Feb-12 06:33N 37°53' E 023°33'0 0.0
2017-Feb-12 05:33N 37°53' E 023°33'0 0.0
2017-Feb-12 04:33N 37°53' E 023°33'0 0.0
2017-Feb-12 03:33N 37°53' E 023°33'  
Track history (hours):
 
Tides and Currents Weather Stations Pressure Air Temp Water Temp Dewpoint Dewpoint Depression Visibility Wind Speed Wind Dir Waves Ship Positions

Mandoudi

Last reported at 2017-Feb-21 18:33 UTC. Time now 2017-Feb-21 19:05 UTC.
Position N 37°58' E 023°37'.

Length 60 m; draft 4.6 m.

Type: Ship (hazmat cat A). MMSI: 237470200.

Date/timePositionNaut miles runAvg speedWind from/ knotsBaromVisibWave heightAir tempDewpointWater temp
2017-Feb-21 18:33N 37°58' E 023°37'0 0.0
2017-Feb-21 17:33N 37°58' E 023°37'0 0.0
2017-Feb-21 16:33N 37°58' E 023°37'0 0.0
2017-Feb-21 15:33N 37°58' E 023°37'0 0.0
2017-Feb-21 14:33N 37°58' E 023°37'0 0.0
2017-Feb-21 13:33N 37°58' E 023°37'0 0.0
2017-Feb-21 12:33N 37°58' E 023°37'0 0.0
2017-Feb-21 11:33N 37°58' E 023°37'2 2.1
2017-Feb-21 10:33N 37°57' E 023°34'4 4.4
2017-Feb-21 09:33N 38°01' E 023°31'0 0.0
2017-Feb-21 08:33N 38°01' E 023°31'1 0.8
2017-Feb-21 07:33N 38°01' E 023°32'0 0.0
2017-Feb-21 06:33N 38°01' E 023°32'3 3.2
2017-Feb-21 05:33N 37°58' E 023°33'3 3.0
2017-Feb-21 04:33N 37°58' E 023°37'0 0.0
2017-Feb-21 03:33N 37°58' E 023°37'0 0.0
2017-Feb-21 02:33N 37°58' E 023°37'0 0.0
2017-Feb-21 01:33N 37°58' E 023°37'0 0.0
2017-Feb-21 00:33N 37°58' E 023°37'0 0.0
2017-Feb-20 23:33N 37°58' E 023°37'0 0.0
2017-Feb-20 22:33N 37°58' E 023°37'0 0.0
2017-Feb-20 21:33N 37°58' E 023°37'0 0.0
2017-Feb-20 20:33N 37°58' E 023°37'0 0.0
2017-Feb-20 19:33N 37°58' E 023°37'0 0.0
2017-Feb-20 18:33N 37°58' E 023°37'0 0.0
2017-Feb-20 17:33N 37°58' E 023°37'0 0.0
2017-Feb-20 16:33N 37°58' E 023°37'0 0.0
2017-Feb-20 15:33N 37°58' E 023°37'0 0.0
2017-Feb-20 14:33N 37°58' E 023°37'0 0.0
2017-Feb-20 13:33N 37°58' E 023°37'0 0.0
2017-Feb-20 12:33N 37°58' E 023°37'1 0.6
2017-Feb-20 11:33N 37°57' E 023°36'2 1.5
2017-Feb-20 10:33N 37°57' E 023°38'0 0.0
2017-Feb-20 09:33N 37°57' E 023°38'0 0.0
2017-Feb-20 08:33N 37°57' E 023°38'0 0.0
2017-Feb-20 07:33N 37°57' E 023°38'0 0.0
2017-Feb-20 06:33N 37°57' E 023°38'1 1.3
2017-Feb-20 05:33N 37°58' E 023°37'0 0.0
2017-Feb-20 04:33N 37°58' E 023°37'0 0.0
2017-Feb-20 03:33N 37°58' E 023°37'0 0.0
2017-Feb-20 02:33N 37°58' E 023°37'0 0.0
2017-Feb-20 01:33N 37°58' E 023°37'0 0.0
2017-Feb-20 00:33N 37°58' E 023°37'0 0.0
2017-Feb-19 23:33N 37°58' E 023°37'0 0.0
2017-Feb-19 22:33N 37°58' E 023°37'0 0.0
2017-Feb-19 21:33N 37°58' E 023°37'0 0.0
2017-Feb-19 20:33N 37°58' E 023°37'0 0.0
2017-Feb-19 19:33N 37°58' E 023°37'0 0.0
2017-Feb-19 18:33N 37°58' E 023°37'0 0.0
2017-Feb-19 17:33N 37°58' E 023°37'0 0.0
2017-Feb-19 16:33N 37°58' E 023°37'0 0.0
2017-Feb-19 15:33N 37°58' E 023°37'0 0.0
2017-Feb-19 14:33N 37°58' E 023°37'0 0.0
2017-Feb-19 13:33N 37°58' E 023°37'0 0.0
2017-Feb-19 12:33N 37°58' E 023°37'0 0.0
2017-Feb-19 11:33N 37°58' E 023°37'0 0.0
2017-Feb-19 10:33N 37°58' E 023°37'2 2.3
2017-Feb-19 09:33N 37°57' E 023°34'5 4.6
2017-Feb-19 08:33N 38°02' E 023°32'0 0.0
2017-Feb-19 07:33N 38°02' E 023°32'5 5.4
2017-Feb-19 06:33N 37°58' E 023°37'0 0.0
2017-Feb-19 05:33N 37°58' E 023°37'0 0.0
2017-Feb-19 04:33N 37°58' E 023°37'0 0.0
2017-Feb-19 03:33N 37°58' E 023°37'0 0.0
2017-Feb-19 02:33N 37°58' E 023°37'0 0.0
2017-Feb-19 01:33N 37°58' E 023°37'0 0.0
2017-Feb-19 00:33N 37°58' E 023°37'0 0.0
2017-Feb-18 23:33N 37°58' E 023°37'0 0.0
2017-Feb-18 22:33N 37°58' E 023°37'0 0.0
2017-Feb-18 21:32N 37°58' E 023°37'0 0.0
2017-Feb-18 20:33N 37°58' E 023°37'0 0.0
2017-Feb-18 19:33N 37°58' E 023°37'0 0.0
2017-Feb-18 18:33N 37°58' E 023°37'0 0.0
2017-Feb-18 17:33N 37°58' E 023°37'0 0.0
2017-Feb-18 16:33N 37°58' E 023°37'0 0.0
2017-Feb-18 15:33N 37°58' E 023°37'0 0.0
2017-Feb-18 14:33N 37°58' E 023°37'0 0.0
2017-Feb-18 13:33N 37°58' E 023°37'0 0.0
2017-Feb-18 12:33N 37°58' E 023°37'0 0.0
2017-Feb-18 11:33N 37°58' E 023°37'0 0.0
2017-Feb-18 10:33N 37°58' E 023°37'0 0.0
2017-Feb-18 09:33N 37°58' E 023°37'0 0.0
2017-Feb-18 08:33N 37°58' E 023°37'0 0.0
2017-Feb-18 07:33N 37°58' E 023°37'0 0.0
2017-Feb-18 06:33N 37°58' E 023°37'1 0.6
2017-Feb-18 05:33N 37°57' E 023°36'4 4.1
2017-Feb-18 04:33N 38°01' E 023°35'0 0.0
2017-Feb-18 03:33N 38°01' E 023°35'0 0.0
2017-Feb-18 02:33N 38°01' E 023°35'1 0.9
2017-Feb-18 01:33N 38°02' E 023°36'0 0.0
2017-Feb-18 00:33N 38°02' E 023°36'0 0.0
2017-Feb-17 23:33N 38°02' E 023°36'0 0.0
2017-Feb-17 22:33N 38°02' E 023°36'0 0.0
2017-Feb-17 21:33N 38°02' E 023°36'0 0.0
2017-Feb-17 20:33N 38°02' E 023°36'0 0.0
2017-Feb-17 19:34N 38°02' E 023°36'0 0.1
2017-Feb-17 18:33N 38°02' E 023°36'1 0.6
2017-Feb-17 17:33N 38°02' E 023°35'0 0.0
2017-Feb-17 16:34N 38°02' E 023°35'0 0.0
2017-Feb-17 15:33N 38°02' E 023°35'0 0.0
2017-Feb-17 14:33N 38°02' E 023°35'0 0.0
2017-Feb-17 13:33N 38°02' E 023°35'0 0.0
2017-Feb-17 12:33N 38°02' E 023°35'0 0.0
2017-Feb-17 11:33N 38°02' E 023°35'0 0.0
2017-Feb-17 10:34N 38°02' E 023°35'0 0.0
2017-Feb-17 09:33N 38°02' E 023°35'0 0.0
2017-Feb-17 08:33N 38°02' E 023°35'0 0.0
2017-Feb-17 07:33N 38°02' E 023°35'0 0.0
2017-Feb-17 06:34N 38°02' E 023°35'5 4.8
2017-Feb-17 05:33N 37°57' E 023°36'1 0.9
2017-Feb-17 04:33N 37°58' E 023°37'0 0.0
2017-Feb-17 03:33N 37°58' E 023°37'0 0.0
2017-Feb-17 02:33N 37°58' E 023°37'0 0.0
2017-Feb-17 01:33N 37°58' E 023°37'0 0.0
2017-Feb-17 00:33N 37°58' E 023°37'0 0.0
2017-Feb-16 23:33N 37°58' E 023°37'0 0.0
2017-Feb-16 22:33N 37°58' E 023°37'0 0.0
2017-Feb-16 21:33N 37°58' E 023°37'0 0.0
2017-Feb-16 20:33N 37°58' E 023°37'0 0.0
2017-Feb-16 19:33N 37°58' E 023°37'0 0.0
2017-Feb-16 18:33N 37°58' E 023°37'0 0.0
2017-Feb-16 17:33N 37°58' E 023°37'0 0.0
2017-Feb-16 16:33N 37°58' E 023°37'0 0.0
2017-Feb-16 15:33N 37°58' E 023°37'0 0.0
2017-Feb-16 14:33N 37°58' E 023°37'0 0.0
2017-Feb-16 13:33N 37°58' E 023°37'0 0.0
2017-Feb-16 12:33N 37°58' E 023°37'0 0.0
2017-Feb-16 11:33N 37°58' E 023°37'0 0.0
2017-Feb-16 10:33N 37°58' E 023°37'0 0.0
2017-Feb-16 09:33N 37°58' E 023°37'0 0.0
2017-Feb-16 08:33N 37°58' E 023°37'0 0.0
2017-Feb-16 07:33N 37°58' E 023°37'0 0.0
2017-Feb-16 06:33N 37°58' E 023°37'0 0.0
2017-Feb-16 05:33N 37°58' E 023°37'0 0.0
2017-Feb-16 04:33N 37°58' E 023°37'0 0.0
2017-Feb-16 03:33N 37°58' E 023°37'0 0.0
2017-Feb-16 02:33N 37°58' E 023°37'0 0.0
2017-Feb-16 01:33N 37°58' E 023°37'0 0.0
2017-Feb-16 00:33N 37°58' E 023°37'0 0.0
2017-Feb-15 23:33N 37°58' E 023°37'0 0.0
2017-Feb-15 22:33N 37°58' E 023°37'0 0.0
2017-Feb-15 21:33N 37°58' E 023°37'2 1.6
2017-Feb-15 20:33N 37°57' E 023°35'4 3.7
2017-Feb-15 19:33N 37°54' E 023°33'0 0.0
2017-Feb-15 18:33N 37°54' E 023°33'0 0.0
2017-Feb-15 17:33N 37°54' E 023°33'0 0.0
2017-Feb-15 16:33N 37°54' E 023°33'2 2.3
2017-Feb-15 15:33N 37°56' E 023°34'3 2.9
2017-Feb-15 14:33N 37°58' E 023°37'0 0.0
2017-Feb-15 13:33N 37°58' E 023°37'0 0.0
2017-Feb-15 12:33N 37°58' E 023°37'0 0.0
2017-Feb-15 11:33N 37°58' E 023°37'0 0.0
2017-Feb-15 10:33N 37°58' E 023°37'0 0.0
2017-Feb-15 09:33N 37°58' E 023°37'0 0.0
2017-Feb-15 08:33N 37°58' E 023°37'0 0.0
2017-Feb-15 07:33N 37°58' E 023°37'0 0.0
2017-Feb-15 06:33N 37°58' E 023°37'0 0.0
2017-Feb-15 05:33N 37°58' E 023°37'0 0.0
2017-Feb-15 04:33N 37°58' E 023°37'0 0.0
2017-Feb-15 03:33N 37°58' E 023°37'0 0.0
2017-Feb-15 02:33N 37°58' E 023°37'0 0.0
2017-Feb-15 01:33N 37°58' E 023°37'0 0.0
2017-Feb-15 00:33N 37°58' E 023°37'0 0.0
2017-Feb-14 23:33N 37°58' E 023°37'0 0.0
2017-Feb-14 22:33N 37°58' E 023°37'0 0.0
2017-Feb-14 21:33N 37°58' E 023°37'0 0.0
2017-Feb-14 20:33N 37°58' E 023°37'0 0.0
2017-Feb-14 19:33N 37°58' E 023°37'3 3.0
2017-Feb-14 18:33N 37°58' E 023°33'5 4.5
2017-Feb-14 17:33N 38°02' E 023°36'0 0.0
2017-Feb-14 16:33N 38°02' E 023°36'0 0.0
2017-Feb-14 15:33N 38°02' E 023°36'0 0.4
2017-Feb-14 14:33N 38°02' E 023°35'1 0.8
2017-Feb-14 13:33N 38°01' E 023°35'5 5.1
2017-Feb-14 12:33N 37°56' E 023°37'0 0.0
2017-Feb-14 11:33N 37°56' E 023°37'0 0.0
2017-Feb-14 10:33N 37°56' E 023°37'1 1.2
2017-Feb-14 09:33N 37°58' E 023°37'0 0.0
2017-Feb-14 08:33N 37°58' E 023°37'0 0.1
2017-Feb-14 06:30N 37°57' E 023°36'0 0.1
2017-Feb-14 02:05N 37°58' E 023°37'0 0.0
2017-Feb-14 00:33N 37°58' E 023°37'0 0.0
2017-Feb-13 23:33N 37°58' E 023°37'0 0.0
2017-Feb-13 22:33N 37°58' E 023°37'0 0.0
2017-Feb-13 21:33N 37°58' E 023°37'0 0.0
2017-Feb-13 20:33N 37°58' E 023°37'0 0.0
2017-Feb-13 19:33N 37°58' E 023°37'0 0.0
2017-Feb-13 18:33N 37°58' E 023°37'0 0.0
2017-Feb-13 17:33N 37°58' E 023°37'0 0.0
2017-Feb-13 16:33N 37°58' E 023°37'0 0.0
2017-Feb-13 15:33N 37°58' E 023°37'0 0.0
2017-Feb-13 14:33N 37°58' E 023°37'0 0.0
2017-Feb-13 13:33N 37°58' E 023°37'0 0.0
2017-Feb-13 06:05N 37°58' E 023°37'0 0.0
2017-Feb-13 04:32N 37°58' E 023°37'0 0.0
2017-Feb-13 00:26N 37°58' E 023°37'0 0.0
2017-Feb-12 23:18N 37°58' E 023°37'0 0.0
2017-Feb-12 22:30N 37°58' E 023°37'0 0.0
2017-Feb-12 21:15N 37°58' E 023°37'1 0.1
2017-Feb-12 11:33N 37°57' E 023°36'1 0.5
2017-Feb-12 10:33N 37°57' E 023°35'0 0.0
2017-Feb-12 09:33N 37°57' E 023°35'0 0.0
2017-Feb-12 08:33N 37°57' E 023°35'4 3.9
2017-Feb-12 07:33N 37°54' E 023°33'0 0.4
2017-Feb-12 06:33N 37°53' E 023°33'0 0.0
2017-Feb-12 05:33N 37°53' E 023°33'0 0.0
2017-Feb-12 04:33N 37°53' E 023°33'0 0.0
2017-Feb-12 03:33N 37°53' E 023°33'  

Dump ship's entire track history